Time;durP1;ratioP1;P1;durP2;ratioP2;P2;SDS_P1;SDS_P2;PMS_P1;PMS_P2;Temp;Humidity;BMP_temperature;BMP_pressure;BME280_temperature;BME280_humidity;BME280_pressure;Samples;Min_cycle;Max_cycle;Signal;HPM_P1;HPM_P2
2022/09/21 00:01:11;;;;;;;3.00;2.10;;;;;;;8.26;79.03;99533.11;1807179;77;21227;-72
2022/09/21 00:03:42;;;;;;;2.90;2.05;;;;;;;8.28;79.02;99527.23;1807764;78;20822;-73
2022/09/21 00:06:16;;;;;;;2.95;1.90;;;;;;;8.31;79.01;99529.15;1803230;77;21057;-72
2022/09/21 00:08:44;;;;;;;4.28;1.98;;;;;;;8.31;78.99;99531.78;1825935;78;20929;-74
2022/09/21 00:11:19;;;;;;;3.02;1.80;;;;;;;8.33;79.02;99534.28;1793479;78;22573;-73
2022/09/21 00:13:46;;;;;;;2.60;1.62;;;;;;;8.34;79.07;99528.05;1796303;78;20970;-72
2022/09/21 00:16:14;;;;;;;4.10;2.08;;;;;;;8.33;79.12;99532.48;1803629;78;21383;-72
2022/09/21 00:18:42;;;;;;;6.37;1.90;;;;;;;8.35;79.21;99528.91;1814809;77;21016;-73
2022/09/21 00:21:11;;;;;;;4.25;2.30;;;;;;;8.38;79.31;99533.42;1786243;78;20970;-72
2022/09/21 00:23:38;;;;;;;5.62;2.20;;;;;;;8.40;79.36;99531.53;1786047;78;21433;-73
2022/09/21 00:26:20;;;;;;;2.55;1.98;;;;;;;8.41;79.39;99530.56;1806086;77;21481;-72
2022/09/21 00:28:53;;;;;;;2.20;1.80;;;;;;;8.41;79.51;99525.30;1833395;77;21004;-72
2022/09/21 00:31:19;;;;;;;2.02;1.50;;;;;;;8.42;79.57;99527.45;1802934;77;21044;-72
2022/09/21 00:33:47;;;;;;;4.17;1.85;;;;;;;8.42;79.63;99525.65;1798160;78;20989;-71
2022/09/21 00:36:17;;;;;;;5.67;2.10;;;;;;;8.42;79.73;99523.02;1792149;78;21978;-72
2022/09/21 00:38:47;;;;;;;4.92;2.22;;;;;;;8.43;79.82;99523.37;1792902;78;21543;-72
2022/09/21 00:41:14;;;;;;;3.80;2.10;;;;;;;8.44;79.92;99522.40;1754483;79;21072;-73
2022/09/21 00:43:47;;;;;;;2.10;1.90;;;;;;;8.47;79.99;99523.45;1749673;79;21402;-73
2022/09/21 00:46:28;;;;;;;3.92;2.33;;;;;;;8.50;80.06;99527.64;1745546;79;21059;-72
2022/09/21 00:48:58;;;;;;;5.87;2.25;;;;;;;8.51;80.16;99524.05;1710689;81;21061;-74
2022/09/21 00:51:24;;;;;;;3.52;2.47;;;;;;;8.52;80.23;99525.23;1733374;81;21037;-72
2022/09/21 00:53:55;;;;;;;3.90;2.40;;;;;;;8.54;80.29;99521.98;1728721;81;21055;-74
2022/09/21 00:56:22;;;;;;;3.20;2.37;;;;;;;8.57;80.32;99516.44;1735737;81;21001;-73
2022/09/21 00:58:50;;;;;;;3.33;2.10;;;;;;;8.59;80.40;99522.44;1764277;80;21248;-73
2022/09/21 01:01:17;;;;;;;5.50;2.30;;;;;;;8.63;80.44;99520.84;1734928;80;21933;-73
2022/09/21 01:03:45;;;;;;;3.55;2.40;;;;;;;8.65;80.43;99512.33;1736507;81;20953;-73
2022/09/21 01:06:13;;;;;;;2.87;2.20;;;;;;;8.65;80.48;99511.02;1713084;82;21485;-73
2022/09/21 01:08:41;;;;;;;3.87;2.50;;;;;;;8.64;80.56;99506.23;1739100;81;20994;-72
2022/09/21 01:11:45;;;;;;;9.25;2.47;;;;;;;8.65;80.59;99506.59;1756035;81;21386;-73
2022/09/21 01:14:43;;;;;;;2.62;2.40;;;;;;;8.67;80.67;99504.65;1737717;80;21922;-74
2022/09/21 01:17:17;;;;;;;6.22;2.60;;;;;;;8.69;80.76;99505.86;1729808;81;20966;-73
2022/09/21 01:20:16;;;;;;;3.87;2.55;;;;;;;8.72;80.83;99504.27;1736018;81;21521;-74
2022/09/21 01:22:57;;;;;;;4.35;2.42;;;;;;;8.75;80.87;99502.20;1735487;81;21001;-74
2022/09/21 01:25:48;;;;;;;6.95;2.77;;;;;;;8.74;80.90;99498.39;1733865;81;21067;-74
2022/09/21 01:28:53;;;;;;;3.40;2.60;;;;;;;8.77;80.98;99500.75;1746477;81;21828;-72
2022/09/21 01:31:23;;;;;;;;;;;;;;;8.79;81.00;99502.31;1740325;80;21005;-73
2022/09/21 01:33:53;;;;;;;4.17;2.62;;;;;;;8.80;81.03;99500.02;1735394;81;20227;-73
2022/09/21 01:36:23;;;;;;;3.40;2.80;;;;;;;8.81;81.08;99499.05;1820048;77;21031;-73
2022/09/21 01:38:55;;;;;;;2.98;2.58;;;;;;;8.83;81.11;99502.86;1808844;78;21388;-73
2022/09/21 01:41:28;;;;;;;3.80;2.98;;;;;;;8.83;81.12;99501.06;1804764;77;21895;-73
2022/09/21 01:43:56;;;;;;;3.87;2.80;;;;;;;8.84;81.13;99503.22;1796874;78;21002;-75
2022/09/21 01:46:26;;;;;;;4.15;2.98;;;;;;;8.82;81.21;99507.30;1763511;79;21084;-72
2022/09/21 01:48:57;;;;;;;7.40;3.35;;;;;;;8.82;81.26;99504.66;1714601;81;20957;-73
2022/09/21 01:51:26;;;;;;;4.20;2.95;;;;;;;8.83;81.29;99502.86;1741201;80;21048;-73
2022/09/21 01:54:00;;;;;;;5.28;3.05;;;;;;;8.82;81.35;99500.72;1757836;79;21827;-73
2022/09/21 01:56:38;;;;;;;8.23;3.10;;;;;;;8.84;81.41;99501.41;1762342;80;21083;-72
2022/09/21 01:59:18;;;;;;;4.92;3.10;;;;;;;8.85;81.45;99498.30;1745188;80;21076;-71
2022/09/21 02:01:54;;;;;;;4.50;3.20;;;;;;;8.86;81.47;99497.33;1733441;80;21063;-72
2022/09/21 02:04:20;;;;;;;3.60;2.85;;;;;;;8.87;81.60;99497.19;1757451;79;21402;-72
2022/09/21 02:06:47;;;;;;;9.98;3.47;;;;;;;8.88;81.64;99498.05;1754764;79;22526;-72
2022/09/21 02:09:14;;;;;;;7.37;3.50;;;;;;;8.91;81.70;99500.89;1731408;81;20948;-73
2022/09/21 02:11:42;;;;;;;4.50;3.70;;;;;;;8.93;81.75;99495.84;1754501;79;21402;-72
2022/09/21 02:14:17;;;;;;;6.67;3.70;;;;;;;8.97;81.78;99503.81;1709671;79;21000;-73
2022/09/21 02:17:01;;;;;;;7.12;3.75;;;;;;;8.99;81.75;99501.91;1785729;77;21003;-74
2022/09/21 02:19:46;;;;;;;5.80;4.22;;;;;;;8.99;81.71;99505.02;1802434;77;23714;-73
2022/09/21 02:22:23;;;;;;;;;;;;;;;9.01;81.71;99504.40;1800421;78;20933;-72
2022/09/21 02:25:01;;;;;;;6.55;3.90;;;;;;;9.02;81.71;99504.27;1795754;78;20390;-72
2022/09/21 02:28:00;;;;;;;5.65;3.65;;;;;;;8.99;81.72;99501.91;1803621;78;21012;-72
2022/09/21 02:30:26;;;;;;;4.65;3.87;;;;;;;8.99;81.75;99505.86;1801911;78;21026;-72
2022/09/21 02:33:14;;;;;;;4.85;4.05;;;;;;;9.00;81.79;99498.30;1804703;79;22490;-72
2022/09/21 02:35:49;;;;;;;5.53;4.28;;;;;;;8.99;81.78;99503.70;1796133;78;20938;-72
2022/09/21 02:38:37;;;;;;;5.03;4.22;;;;;;;8.99;81.84;99507.66;1817549;78;21575;-73
2022/09/21 02:41:26;;;;;;;6.62;4.37;;;;;;;8.98;81.81;99499.41;1801925;78;20950;-73
2022/09/21 02:44:06;;;;;;;6.12;4.28;;;;;;;8.97;81.89;99493.77;1790142;78;21405;-73
2022/09/21 02:46:40;;;;;;;6.45;3.83;;;;;;;9.00;81.96;99497.47;1813395;78;21795;-73
2022/09/21 02:49:17;;;;;;;5.17;3.90;;;;;;;9.04;81.98;99501.00;1825414;77;21511;-72
2022/09/21 02:51:47;;;;;;;6.67;4.53;;;;;;;9.06;81.98;99504.33;1779136;79;21324;-73
2022/09/21 02:54:17;;;;;;;5.25;4.62;;;;;;;9.06;81.95;99500.38;1799924;77;21079;-73
2022/09/21 02:56:43;;;;;;;5.33;4.83;;;;;;;9.05;81.96;99498.72;1810607;78;21000;-72
2022/09/21 02:59:10;;;;;;;6.55;4.83;;;;;;;9.07;81.97;99499.89;1808225;77;21807;-75
2022/09/21 03:01:38;;;;;;;6.87;4.83;;;;;;;9.06;82.03;99504.33;1790723;77;21001;-73
2022/09/21 03:04:05;;;;;;;6.00;4.80;;;;;;;9.07;82.00;99503.84;1779549;79;21019;-74
2022/09/21 03:06:32;;;;;;;7.87;4.87;;;;;;;9.06;82.05;99506.97;1797080;78;22550;-73
2022/09/21 03:08:59;;;;;;;6.75;4.97;;;;;;;9.08;82.09;99505.55;1815137;77;21003;-73
2022/09/21 03:11:26;;;;;;;5.90;5.22;;;;;;;9.09;82.10;99509.84;1798047;77;21525;-73
2022/09/21 03:13:52;;;;;;;5.92;5.33;;;;;;;9.09;82.14;99504.58;1797689;78;20945;-73
2022/09/21 03:16:19;;;;;;;7.35;5.80;;;;;;;9.09;82.14;99509.84;1796709;78;21067;-73
2022/09/21 03:18:45;;;;;;;7.37;5.33;;;;;;;9.12;82.20;99513.52;1795874;78;21009;-73
2022/09/21 03:21:12;;;;;;;8.88;4.97;;;;;;;9.15;82.24;99509.28;1772524;79;20958;-77
2022/09/21 03:23:39;;;;;;;9.10;4.97;;;;;;;9.17;82.19;99516.59;1803579;78;21831;-73
2022/09/21 03:26:07;;;;;;;9.45;5.10;;;;;;;9.17;82.22;99518.75;1796818;78;20987;-73
2022/09/21 03:28:34;;;;;;;7.03;5.55;;;;;;;9.20;82.21;99519.44;1810186;77;20929;-74
2022/09/21 03:31:01;;;;;;;10.70;6.03;;;;;;;9.17;82.18;99523.19;1806482;77;21058;-73
2022/09/21 03:33:28;;;;;;;9.30;5.70;;;;;;;9.16;82.23;99519.69;1810375;77;21036;-72
2022/09/21 03:35:54;;;;;;;6.97;5.60;;;;;;;9.18;82.25;99527.00;1810217;77;21811;-73
2022/09/21 03:38:21;;;;;;;6.47;5.30;;;;;;;9.18;82.25;99523.53;1807825;77;21106;-74
2022/09/21 03:40:48;;;;;;;6.72;5.20;;;;;;;9.17;82.27;99522.70;1814250;77;21467;-72
2022/09/21 03:43:15;;;;;;;7.60;5.70;;;;;;;9.17;82.32;99521.37;1814559;77;20938;-73
2022/09/21 03:45:42;;;;;;;8.13;6.30;;;;;;;9.21;82.34;99521.11;1809623;77;21431;-73
2022/09/21 03:48:11;;;;;;;6.47;5.67;;;;;;;9.22;82.34;99520.13;1818115;77;21911;-73
2022/09/21 03:50:38;;;;;;;7.30;5.33;;;;;;;9.23;82.39;99522.63;1808987;77;21491;-73
2022/09/21 03:53:07;;;;;;;7.62;6.37;;;;;;;9.27;82.44;99522.73;1805557;77;21028;-73
2022/09/21 03:55:34;;;;;;;10.23;7.50;;;;;;;9.28;82.38;99516.97;1810175;77;21444;-73
2022/09/21 03:58:01;;;;;;;8.43;7.30;;;;;;;9.29;82.42;99519.47;1831432;77;20984;-72
2022/09/21 04:00:28;;;;;;;11.08;7.22;;;;;;;9.30;82.44;99528.20;1834954;77;21908;-74
2022/09/21 04:02:55;;;;;;;13.05;6.90;;;;;;;9.31;82.43;99523.28;1804104;77;21015;-73
2022/09/21 04:05:21;;;;;;;8.28;6.72;;;;;;;9.32;82.49;99520.99;1796521;77;20937;-74
2022/09/21 04:07:53;;;;;;;8.55;6.35;;;;;;;9.30;82.44;99524.25;1808034;77;21094;-72
2022/09/21 04:10:31;;;;;;;8.13;6.42;;;;;;;9.30;82.48;99521.13;1784462;79;20953;-72
2022/09/21 04:12:50;;;;;;;8.98;6.53;;;;;;;9.29;82.51;99519.47;1798796;77;21906;-72
2022/09/21 04:15:20;;;;;;;10.45;6.28;;;;;;;9.31;82.58;99520.16;1799134;79;20980;-72
2022/09/21 04:17:52;;;;;;;8.05;6.03;;;;;;;9.34;82.65;99520.37;1794928;77;20988;-73
2022/09/21 04:20:20;;;;;;;8.35;6.33;;;;;;;9.36;82.64;99525.02;1814963;77;20993;-74
2022/09/21 04:22:46;;;;;;;8.23;6.15;;;;;;;9.38;82.71;99525.25;1818214;77;21669;-73
2022/09/21 04:25:14;;;;;;;10.70;6.37;;;;;;;9.39;82.73;99532.19;1805763;77;21814;-74
2022/09/21 04:27:42;;;;;;;10.35;6.87;;;;;;;9.41;82.73;99532.88;1807656;77;21372;-72
2022/09/21 04:30:11;;;;;;;10.35;7.62;;;;;;;9.44;82.79;99531.77;1802546;78;21450;-72
2022/09/21 04:32:38;;;;;;;10.63;6.92;;;;;;;9.46;82.87;99530.69;1773208;77;21008;-71
2022/09/21 04:35:06;;;;;;;9.78;6.60;;;;;;;9.51;82.92;99528.95;1782277;77;21061;-72
2022/09/21 04:37:34;;;;;;;9.50;7.22;;;;;;;9.52;82.88;99528.47;1797409;77;22783;-72
2022/09/21 04:40:02;;;;;;;9.78;7.35;;;;;;;9.52;82.91;99528.47;1804566;77;21973;-72
2022/09/21 04:42:29;;;;;;;11.03;7.30;;;;;;;9.54;82.95;99533.94;1804495;78;21055;-72
2022/09/21 04:44:58;;;;;;;12.90;7.17;;;;;;;9.56;82.95;99533.34;1786169;79;21017;-72
2022/09/21 04:47:25;;;;;;;9.18;7.28;;;;;;;9.59;83.08;99534.38;1804084;77;21024;-75
2022/09/21 04:49:53;;;;;;;9.13;7.92;;;;;;;9.62;83.16;99532.78;1795820;77;21839;-74
2022/09/21 04:52:20;;;;;;;13.65;7.28;;;;;;;9.67;83.25;99537.66;1807707;77;20932;-74
2022/09/21 04:54:46;;;;;;;9.15;7.37;;;;;;;9.72;83.19;99536.27;1812958;77;21071;-71
2022/09/21 04:57:13;;;;;;;10.93;7.37;;;;;;;9.76;83.19;99536.84;1815846;77;20989;-74
2022/09/21 04:59:40;;;;;;;11.50;7.25;;;;;;;9.78;83.17;99541.48;1805639;78;21067;-71
2022/09/21 05:02:08;;;;;;;10.05;7.10;;;;;;;9.81;83.13;99537.25;1812838;77;21538;-74
2022/09/21 05:04:55;;;;;;;13.60;7.83;;;;;;;9.82;82.97;99536.28;1805932;77;21051;-72
2022/09/21 05:07:22;;;;;;;12.53;7.53;;;;;;;9.80;82.87;99537.39;1660329;83;21526;-72
2022/09/21 05:10:04;;;;;;;10.93;7.67;;;;;;;9.79;82.85;99541.00;1663232;85;21096;-73
2022/09/21 05:12:42;;;;;;;15.20;8.10;;;;;;;9.82;82.90;99542.04;1669993;83;21075;-75
2022/09/21 05:15:13;;;;;;;17.45;8.48;;;;;;;9.83;82.98;99543.70;1670683;83;21934;-76
2022/09/21 05:17:41;;;;;;;15.53;8.83;;;;;;;9.84;83.03;99541.41;1668207;85;21016;-73
2022/09/21 05:20:10;;;;;;;22.60;8.30;;;;;;;9.85;82.92;99544.42;1658834;84;21056;-73
2022/09/21 05:22:37;;;;;;;11.22;8.80;;;;;;;9.82;82.97;99545.50;1667372;85;21047;-69
2022/09/21 05:25:06;;;;;;;11.93;8.48;;;;;;;9.84;83.01;99543.56;1663207;85;21527;-74
2022/09/21 05:27:34;;;;;;;14.83;8.65;;;;;;;9.87;83.11;99545.95;1663300;85;21946;-71
2022/09/21 05:30:04;;;;;;;11.88;8.48;;;;;;;9.91;83.18;99546.48;1694735;83;21501;-73
2022/09/21 05:32:58;;;;;;;13.10;8.40;;;;;;;9.94;83.21;99548.84;1661245;84;21004;-71
2022/09/21 05:36:07;;;;;;;12.10;7.80;;;;;;;9.99;83.36;99550.11;1673657;85;21029;-71
2022/09/21 05:38:52;;;;;;;12.25;8.03;;;;;;;10.04;83.39;99542.63;1655681;84;21118;-75
2022/09/21 05:41:31;;;;;;;10.35;8.35;;;;;;;10.10;83.44;99548.30;1696486;83;22789;-71
2022/09/21 05:44:17;;;;;;;12.13;8.25;;;;;;;10.14;83.52;99548.39;1663693;84;21083;-71
2022/09/21 05:47:07;;;;;;;11.95;8.70;;;;;;;10.19;83.54;99543.52;1669937;84;21098;-71
2022/09/21 05:50:19;;;;;;;8.68;7.62;;;;;;;10.22;83.58;99544.09;1664441;84;21107;-70
2022/09/21 05:53:24;;;;;;;7.67;6.75;;;;;;;10.27;83.58;99549.80;1650591;84;21083;-68
2022/09/21 05:56:37;;;;;;;10.25;8.40;;;;;;;10.34;83.63;99555.84;1644717;84;21947;-70
2022/09/21 05:59:41;;;;;;;9.95;7.95;;;;;;;10.39;83.58;99554.92;1635014;84;20965;-70
2022/09/21 06:02:55;;;;;;;6.95;6.25;;;;;;;10.42;83.51;99557.27;1663137;84;21103;-69
2022/09/21 06:05:39;;;;;;;8.05;6.17;;;;;;;10.44;83.48;99563.27;1637523;86;20987;-70
2022/09/21 06:08:14;;;;;;;7.75;6.70;;;;;;;10.47;83.51;99562.98;1685466;83;21040;-71
2022/09/21 06:11:08;;;;;;;6.22;5.20;;;;;;;10.49;83.49;99567.13;1674365;84;21837;-70
2022/09/21 06:13:54;;;;;;;5.97;5.20;;;;;;;10.50;83.37;99566.65;1680820;84;21024;-70
2022/09/21 06:16:28;;;;;;;5.67;5.08;;;;;;;10.52;83.35;99566.87;1695914;83;20952;-71
2022/09/21 06:19:02;;;;;;;5.62;5.08;;;;;;;10.54;83.19;99569.37;1667021;83;28811;-71
2022/09/21 06:21:41;;;;;;;7.28;5.20;;;;;;;10.55;83.21;99574.99;1697680;83;21060;-71
2022/09/21 06:24:14;;;;;;;5.53;5.00;;;;;;;10.59;83.18;99581.64;1711127;82;21869;-72
2022/09/21 06:26:54;;;;;;;5.17;4.37;;;;;;;10.62;83.21;99580.06;1709598;82;21116;-71
2022/09/21 06:29:23;;;;;;;5.03;4.53;;;;;;;10.64;83.07;99583.88;1681476;83;21061;-70
2022/09/21 06:31:59;;;;;;;7.72;4.70;;;;;;;10.60;83.00;99587.27;1687409;84;21428;-70
2022/09/21 06:34:39;;;;;;;5.37;4.35;;;;;;;10.63;83.02;99589.65;1684387;85;21083;-72
2022/09/21 06:37:13;;;;;;;5.00;4.50;;;;;;;10.67;83.04;99588.38;1714672;82;22009;-72
2022/09/21 06:39:57;;;;;;;5.22;3.62;;;;;;;10.70;82.97;99599.14;1672946;83;21535;-71
2022/09/21 06:42:31;;;;;;;4.83;4.30;;;;;;;10.71;82.90;99596.38;1669528;84;21040;-73
2022/09/21 06:45:03;;;;;;;5.40;4.20;;;;;;;10.68;82.71;99599.28;1678081;84;21485;-72
2022/09/21 06:47:35;;;;;;;4.37;3.80;;;;;;;10.69;82.79;99601.44;1681090;85;21567;-74
2022/09/21 06:50:12;;;;;;;4.62;3.90;;;;;;;10.73;82.77;99602.35;1671350;84;23474;-74
2022/09/21 06:52:41;;;;;;;3.90;3.50;;;;;;;10.78;82.74;99605.38;1680665;83;21111;-73
2022/09/21 06:55:15;;;;;;;3.52;3.22;;;;;;;10.82;82.75;99605.47;1686026;83;21107;-73
2022/09/21 06:57:50;;;;;;;3.92;3.20;;;;;;;10.84;82.70;99611.44;1696575;83;21028;-73
2022/09/21 07:00:22;;;;;;;3.20;2.90;;;;;;;10.88;82.67;99609.33;1712039;83;21092;-72
2022/09/21 07:02:56;;;;;;;3.10;2.80;;;;;;;10.93;82.67;99611.56;1689462;82;21746;-74
2022/09/21 07:05:28;;;;;;;3.40;3.10;;;;;;;10.92;82.58;99612.05;1704294;83;21016;-71
2022/09/21 07:08:00;;;;;;;3.40;3.10;;;;;;;10.95;82.61;99610.92;1716786;81;21431;-72
2022/09/21 07:10:56;;;;;;;3.33;3.02;;;;;;;10.99;82.63;99613.61;1669676;85;21122;-72
2022/09/21 07:14:04;;;;;;;4.87;3.30;;;;;;;11.04;82.63;99614.03;1612433;86;21026;-71
2022/09/21 07:16:53;;;;;;;3.02;2.70;;;;;;;11.11;82.71;99616.45;1615735;87;21563;-73
2022/09/21 07:19:27;;;;;;;4.53;3.42;;;;;;;11.21;82.86;99613.78;1587803;88;21065;-72
2022/09/21 07:22:02;;;;;;;3.90;3.50;;;;;;;11.28;82.80;99613.52;1621172;88;21056;-70
2022/09/21 07:24:35;;;;;;;3.67;3.35;;;;;;;11.34;82.82;99619.08;1620521;86;21526;-73
2022/09/21 07:27:08;;;;;;;4.58;3.70;;;;;;;11.43;82.88;99616.05;1621017;87;21621;-73
2022/09/21 07:43:01;;;;;;;4.65;3.40;;;;;;;11.70;80.29;99641.69;1820312;75;22732;-75
2022/09/21 07:45:29;;;;;;;5.35;3.60;;;;;;;11.52;79.75;99646.08;1792554;78;20991;-73
2022/09/21 07:48:07;;;;;;;3.50;3.20;;;;;;;11.36;79.83;99653.30;1801462;77;22236;-73
2022/09/21 07:50:34;;;;;;;4.35;3.55;;;;;;;11.22;79.89;99654.60;1780152;80;21071;-73
2022/09/21 07:53:25;;;;;;;4.03;3.58;;;;;;;11.14;80.26;99659.77;1805742;78;21089;-71
2022/09/21 07:56:21;;;;;;;4.42;3.70;;;;;;;11.12;80.51;99664.37;1748469;80;21426;-72
2022/09/21 07:59:13;;;;;;;4.77;4.10;;;;;;;11.16;80.94;99667.89;1813395;78;20970;-72
2022/09/21 08:02:03;;;;;;;4.87;4.00;;;;;;;11.21;81.35;99664.00;1815989;77;21003;-75
2022/09/21 08:04:30;;;;;;;5.00;4.42;;;;;;;11.27;81.66;99665.56;1816128;77;20980;-74
2022/09/21 08:06:57;;;;;;;4.97;4.08;;;;;;;11.38;81.93;99661.91;1770197;80;21005;-72
2022/09/21 08:09:23;;;;;;;4.62;4.10;;;;;;;11.47;81.77;99653.94;1772198;80;21470;-73
2022/09/21 08:11:50;;;;;;;4.42;3.85;;;;;;;11.52;81.74;99664.10;1773002;79;21119;-72
2022/09/21 08:14:20;;;;;;;6.72;4.22;;;;;;;11.61;81.88;99663.23;1815188;77;21900;-73
2022/09/21 08:16:47;;;;;;;4.70;4.15;;;;;;;11.68;81.86;99660.84;1822304;78;20989;-74
2022/09/21 08:19:16;;;;;;;5.05;4.35;;;;;;;11.76;81.91;99663.56;1792208;80;21494;-73
2022/09/21 08:21:42;;;;;;;4.62;4.12;;;;;;;11.85;81.82;99665.36;1797183;79;20982;-72
2022/09/21 08:24:09;;;;;;;6.60;4.40;;;;;;;11.95;81.87;99668.79;1799080;78;21084;-73
2022/09/21 08:26:36;;;;;;;5.70;4.00;;;;;;;12.07;81.81;99671.27;1812922;78;22319;-72
2022/09/21 08:29:03;;;;;;;4.53;4.12;;;;;;;12.20;81.88;99671.23;1768949;78;21024;-72
2022/09/21 08:31:30;;;;;;;4.05;3.70;;;;;;;12.30;81.63;99669.35;1824596;77;20975;-73
2022/09/21 08:33:57;;;;;;;5.47;4.12;;;;;;;12.30;80.56;99668.03;1848656;77;21017;-72
2022/09/21 08:36:26;;;;;;;4.40;4.00;;;;;;;12.26;80.09;99672.47;1829219;76;21049;-71
2022/09/21 08:38:54;;;;;;;4.15;3.75;;;;;;;12.28;80.10;99670.49;1837251;77;21859;-73
2022/09/21 08:42:09;;;;;;;4.15;3.47;;;;;;;12.35;80.09;99664.92;1823796;77;21569;-71
2022/09/21 08:45:06;;;;;;;3.12;2.83;;;;;;;12.47;80.12;99670.84;1808312;78;21193;-72
2022/09/21 08:47:47;;;;;;;3.58;3.22;;;;;;;12.54;79.23;99667.42;1793433;77;21080;-72
2022/09/21 08:50:23;;;;;;;3.25;2.95;;;;;;;12.54;78.89;99679.83;1836515;77;20995;-73
2022/09/21 08:52:51;;;;;;;4.87;2.60;;;;;;;12.58;78.81;99677.24;1819967;77;22480;-71
2022/09/21 08:55:19;;;;;;;3.00;2.35;;;;;;;12.64;78.13;99673.13;1808780;78;21022;-73
2022/09/21 08:57:46;;;;;;;2.40;2.20;;;;;;;12.70;78.19;99680.48;1813475;78;21001;-71
2022/09/21 09:00:15;;;;;;;2.50;2.27;;;;;;;12.83;78.21;99671.64;1811727;78;20991;-71
2022/09/21 09:03:14;;;;;;;2.72;2.45;;;;;;;12.91;77.56;99666.41;1821701;78;21045;-71
2022/09/21 09:05:54;;;;;;;3.52;2.10;;;;;;;12.98;77.43;99667.96;1774422;79;21878;-71
2022/09/21 09:08:38;;;;;;;4.28;1.90;;;;;;;13.05;76.22;99673.82;1771188;79;21040;-72
2022/09/21 09:11:28;;;;;;;2.20;2.00;;;;;;;13.12;76.22;99675.34;1764442;80;21083;-73
2022/09/21 09:14:14;;;;;;;2.05;1.85;;;;;;;13.26;75.57;99673.99;1740869;80;21525;-71
2022/09/21 09:16:47;;;;;;;2.10;1.82;;;;;;;13.42;75.61;99677.58;1764127;80;20947;-69
2022/09/21 09:19:28;;;;;;;2.80;1.75;;;;;;;13.49;75.08;99675.11;1760409;80;22608;-70
2022/09/21 09:21:55;;;;;;;2.10;1.60;;;;;;;13.51;74.93;99675.81;1743207;81;21229;-69
2022/09/21 09:24:41;;;;;;;2.47;1.50;;;;;;;13.54;74.26;99670.67;1765143;79;21004;-69
2022/09/21 09:27:31;;;;;;;1.95;1.70;;;;;;;13.57;74.18;99677.81;1751957;79;20961;-70
2022/09/21 09:30:40;;;;;;;1.67;1.57;;;;;;;13.60;73.90;99676.16;1776585;80;21043;-73
2022/09/21 09:33:27;;;;;;;1.45;1.35;;;;;;;13.62;72.62;99676.03;1712444;83;22456;-72
2022/09/21 09:36:05;;;;;;;1.52;1.20;;;;;;;13.53;72.80;99680.46;1696482;83;21568;-71
2022/09/21 09:38:46;;;;;;;1.20;1.10;;;;;;;13.42;71.49;99678.91;1711905;83;21048;-71
2022/09/21 09:41:45;;;;;;;1.27;1.00;;;;;;;13.38;71.57;99680.69;1705018;82;21074;-71
2022/09/21 09:44:50;;;;;;;1.20;0.90;;;;;;;13.32;71.07;99674.70;1712412;83;21091;-73
2022/09/21 09:47:44;;;;;;;1.12;1.02;;;;;;;13.18;70.82;99682.19;1709425;82;21774;-70
2022/09/21 09:50:22;;;;;;;1.22;1.12;;;;;;;13.15;71.09;99681.68;1697343;84;21369;-71
2022/09/21 09:52:51;;;;;;;2.40;1.17;;;;;;;13.13;71.30;99679.19;1687019;83;21085;-71
2022/09/21 09:55:23;;;;;;;1.37;1.20;;;;;;;13.20;71.93;99689.19;1679217;84;21029;-71
2022/09/21 09:57:50;;;;;;;1.62;1.20;;;;;;;13.29;71.65;99685.61;1703009;83;21034;-71
2022/09/21 10:00:18;;;;;;;2.90;1.30;;;;;;;13.43;71.96;99686.38;1702357;83;21884;-72
2022/09/21 10:02:57;;;;;;;0.98;0.95;;;;;;;13.59;71.98;99686.94;1694125;83;21075;-74
2022/09/21 10:05:33;;;;;;;1.20;1.10;;;;;;;13.74;72.13;99688.02;1700940;83;21011;-76
2022/09/21 10:08:00;;;;;;;2.47;1.10;;;;;;;13.90;71.74;99693.91;1671576;85;21038;-74
2022/09/21 10:10:38;;;;;;;2.87;1.10;;;;;;;14.05;71.37;99685.66;1712048;82;20996;-72
2022/09/21 10:13:22;;;;;;;1.20;1.10;;;;;;;14.11;70.76;99695.64;1680640;85;21979;-73
2022/09/21 10:15:54;;;;;;;;;;;;;;;14.18;70.74;99696.64;1695546;83;20963;-72
2022/09/21 10:18:35;;;;;;;1.20;1.10;;;;;;;14.24;69.71;99698.66;1701288;82;20173;-72
2022/09/21 10:21:19;;;;;;;2.50;1.12;;;;;;;14.15;68.86;99702.28;1704348;82;21055;-74
2022/09/21 10:23:58;;;;;;;2.00;1.10;;;;;;;14.12;68.79;99701.79;1709307;82;21528;-72
2022/09/21 10:26:32;;;;;;;1.20;1.10;;;;;;;14.04;68.41;99706.07;1689588;82;21813;-72
2022/09/21 10:29:04;;;;;;;;;;;;;;;13.95;68.14;99708.35;1710620;82;21030;-74
2022/09/21 10:31:30;;;;;;;1.45;1.30;;;;;;;13.91;68.45;99714.98;1674612;83;20174;-72
2022/09/21 10:34:14;;;;;;;3.47;1.40;;;;;;;13.86;68.39;99714.62;1663008;83;21021;-72
2022/09/21 10:36:50;;;;;;;2.12;1.40;;;;;;;13.76;68.50;99719.22;1658484;85;21043;-72
2022/09/21 10:39:31;;;;;;;1.65;1.37;;;;;;;13.73;68.94;99721.70;1658856;86;21938;-72
2022/09/21 10:42:13;;;;;;;1.40;1.30;;;;;;;13.72;69.09;99722.69;1660089;85;21034;-72
2022/09/21 10:44:48;;;;;;;3.72;1.40;;;;;;;13.75;69.64;99720.20;1659055;85;21498;-72
2022/09/21 10:47:26;;;;;;;2.52;1.40;;;;;;;13.84;69.58;99721.91;1659016;85;21046;-72
2022/09/21 10:49:55;;;;;;;1.47;1.20;;;;;;;13.93;69.33;99720.97;1673290;85;21015;-71
2022/09/21 10:52:24;;;;;;;1.30;1.15;;;;;;;14.03;69.35;99722.16;1681264;83;22551;-71
2022/09/21 10:54:54;;;;;;;1.82;1.30;;;;;;;14.19;69.11;99723.56;1660847;84;20975;-72
2022/09/21 10:57:23;;;;;;;1.57;1.20;;;;;;;14.41;69.41;99723.45;1675698;83;21064;-74
2022/09/21 10:59:50;;;;;;;2.33;1.20;;;;;;;14.58;68.35;99719.05;1672635;83;21027;-73
2022/09/21 11:02:33;;;;;;;1.30;1.20;;;;;;;14.59;65.53;99724.20;1680382;85;20927;-72
2022/09/21 11:05:09;;;;;;;1.20;1.10;;;;;;;14.55;65.60;99722.02;1684068;84;21993;-72
2022/09/21 11:08:13;;;;;;;2.37;1.10;;;;;;;14.53;64.69;99726.16;1682814;85;21457;-72
2022/09/21 11:10:50;;;;;;;1.10;1.00;;;;;;;14.48;64.15;99717.87;1683743;84;20996;-73
2022/09/21 11:13:32;;;;;;;5.17;1.37;;;;;;;14.44;63.95;99723.62;1656188;86;21015;-72
2022/09/21 11:16:26;;;;;;;1.50;0.80;;;;;;;14.45;64.05;99725.31;1661957;85;20977;-73
2022/09/21 11:19:14;;;;;;;1.70;1.17;;;;;;;14.46;63.33;99722.98;1674874;85;25299;-72
2022/09/21 11:21:58;;;;;;;1.05;1.05;;;;;;;14.47;63.65;99724.64;1693178;82;21028;-72
2022/09/21 11:25:09;;;;;;;1.10;1.00;;;;;;;14.54;64.52;99723.84;1685405;83;21121;-73
2022/09/21 11:27:41;;;;;;;1.02;0.90;;;;;;;14.68;64.12;99726.87;1669117;83;21055;-72
2022/09/21 11:30:12;;;;;;;3.08;1.20;;;;;;;14.85;63.59;99728.03;1674167;83;21114;-72
2022/09/21 11:33:18;;;;;;;1.30;1.20;;;;;;;14.92;62.79;99720.73;1654238;83;21994;-72
2022/09/21 11:36:16;;;;;;;1.30;1.20;;;;;;;15.00;62.73;99726.89;1699389;82;21056;-71
2022/09/21 11:39:03;;;;;;;1.10;1.00;;;;;;;15.13;62.56;99727.21;1683289;83;21095;-71
2022/09/21 11:42:07;;;;;;;1.32;1.00;;;;;;;15.23;61.91;99726.21;1681723;82;21027;-72
2022/09/21 11:44:54;;;;;;;0.80;0.80;;;;;;;15.23;60.80;99733.69;1697115;82;21058;-71
2022/09/21 11:48:00;;;;;;;1.45;1.15;;;;;;;15.16;60.31;99732.72;1695524;82;21957;-72
2022/09/21 11:50:36;;;;;;;1.02;0.82;;;;;;;15.30;61.61;99733.36;1701463;84;21000;-72
2022/09/21 11:53:36;;;;;;;1.60;0.90;;;;;;;15.72;60.66;99724.33;1697664;82;21065;-71
2022/09/21 11:56:31;;;;;;;1.50;1.10;;;;;;;15.97;59.66;99733.91;1697071;82;21027;-73
2022/09/21 11:59:38;;;;;;;1.25;0.90;;;;;;;16.02;58.61;99736.90;1686234;82;21352;-72
2022/09/21 12:02:24;;;;;;;1.17;1.00;;;;;;;15.81;58.76;99739.78;1693154;82;22432;-74
2022/09/21 12:05:22;;;;;;;1.57;0.80;;;;;;;15.67;59.22;99745.32;1682930;82;20973;-72
2022/09/21 12:08:26;;;;;;;2.05;0.90;;;;;;;15.53;58.50;99748.63;1665737;82;21004;-71
2022/09/21 12:11:11;;;;;;;0.70;0.70;;;;;;;15.66;59.67;99747.16;1697274;82;21119;-72
2022/09/21 12:13:59;;;;;;;0.77;0.77;;;;;;;16.20;59.80;99740.63;1678506;84;21046;-72
2022/09/21 12:16:54;;;;;;;3.67;0.70;;;;;;;16.81;58.92;99739.51;1673320;84;22053;-72
2022/09/21 12:20:01;;;;;;;0.80;0.80;;;;;;;17.39;55.25;99744.71;1696750;82;21030;-71
2022/09/21 12:22:33;;;;;;;0.90;0.80;;;;;;;17.37;53.95;99742.70;1664278;84;21042;-72
2022/09/21 12:25:12;;;;;;;0.85;0.82;;;;;;;17.12;55.06;99746.11;1664289;84;21034;-71
2022/09/21 12:27:58;;;;;;;2.02;0.80;;;;;;;16.88;55.51;99750.59;1684604;82;21446;-72
2022/09/21 12:30:24;;;;;;;2.55;0.80;;;;;;;16.56;55.59;99754.79;1699726;82;21857;-72
2022/09/21 12:33:24;;;;;;;1.40;0.90;;;;;;;16.23;56.20;99765.63;1693328;83;21387;-72
2022/09/21 12:36:04;;;;;;;1.20;1.00;;;;;;;16.02;57.33;99756.87;1682637;83;21464;-72